Ronnie Rogers — WDD2270 — position and weather

sailwx.info

Track history (hours):
 
Tides and Currents Weather Stations Pressure Air Temp Water Temp Dewpoint Dewpoint Depression Visibility Wind Speed Wind Dir Waves Ship Positions

Ronnie Rogers

Owner: Florida Marine Transporters, Inc., Mandeville, LA. More information available from US FCC via Universal Licensing System and Coast Guard Vessel Documentation Center.

Last reported at 2015-Apr-21 18:33 UTC. Time now 2015-Apr-28 14:32 UTC.
Position N 29°24' W 094°49'.

Length 29 m; draft 3 m.

Type: Towing. MMSI: 367113160.

Date/timePositionNaut miles runAvg speedWind from/ knotsBaromVisibWave heightAir tempDewpointWater temp
2015-Apr-21 18:33N 29°24' W 094°49'7 6.6
2015-Apr-21 17:33N 29°30' W 094°52'6 6.2
2015-Apr-21 16:33N 29°35' W 094°56'6 6.5
2015-Apr-21 15:33N 29°41' W 094°59'6 5.6
2015-Apr-21 14:33N 29°45' W 095°04'3 2.9
2015-Apr-21 13:33N 29°47' W 095°04'0 0.1
2015-Apr-21 12:33N 29°47' W 095°04'2 2.1
2015-Apr-21 11:33N 29°46' W 095°05'4 3.9
2015-Apr-21 10:34N 29°45' W 095°10'2 2.3
2015-Apr-21 09:33N 29°44' W 095°12'0 0.0
2015-Apr-21 08:33N 29°44' W 095°12'0 0.0
2015-Apr-21 07:33N 29°44' W 095°12'0 0.0
2015-Apr-21 06:33N 29°44' W 095°12'0 0.0
2015-Apr-21 05:34N 29°44' W 095°12'0 0.0
2015-Apr-21 04:33N 29°44' W 095°12'0 0.2
2015-Apr-21 03:33N 29°44' W 095°12'0 0.0
2015-Apr-21 02:33N 29°44' W 095°12'0 0.0
2015-Apr-21 01:33N 29°44' W 095°12'0 0.0
2015-Apr-21 00:33N 29°44' W 095°12'0 0.2
2015-Apr-20 23:33N 29°44' W 095°12'0 0.0
2015-Apr-20 22:33N 29°44' W 095°12'0 0.2
2015-Apr-20 21:33N 29°44' W 095°12'0 0.0
2015-Apr-20 20:33N 29°44' W 095°12'0 0.0
2015-Apr-20 19:33N 29°44' W 095°12'0 0.0
2015-Apr-20 18:33N 29°44' W 095°12'0 0.0
2015-Apr-20 17:33N 29°44' W 095°12'0 0.0
2015-Apr-20 16:33N 29°44' W 095°12'0 0.0
2015-Apr-20 15:33N 29°44' W 095°12'0 0.2
2015-Apr-20 14:33N 29°44' W 095°12'0 0.0
2015-Apr-20 13:33N 29°44' W 095°12'0 0.0
2015-Apr-20 12:33N 29°44' W 095°12'0 0.0
2015-Apr-20 11:33N 29°44' W 095°12'0 0.0
2015-Apr-20 10:33N 29°44' W 095°12'0 0.0
2015-Apr-20 09:33N 29°44' W 095°12'0 0.0
2015-Apr-20 08:33N 29°44' W 095°12'0 0.2
2015-Apr-20 07:33N 29°44' W 095°12'0 0.0
2015-Apr-20 06:33N 29°44' W 095°12'0 0.0
2015-Apr-20 05:33N 29°44' W 095°12'0 0.0
2015-Apr-20 04:33N 29°44' W 095°12'0 0.2
2015-Apr-20 03:33N 29°44' W 095°12'0 0.0
2015-Apr-20 02:33N 29°44' W 095°12'0 0.2
2015-Apr-20 01:33N 29°44' W 095°12'0 0.0
2015-Apr-20 00:33N 29°44' W 095°12'0 0.0
2015-Apr-19 23:33N 29°44' W 095°12'0 0.0
2015-Apr-19 22:33N 29°44' W 095°12'0 0.0
2015-Apr-19 21:33N 29°44' W 095°12'0 0.0
2015-Apr-19 20:33N 29°44' W 095°12'0 0.0
2015-Apr-19 19:33N 29°44' W 095°12'0 0.0
2015-Apr-19 18:33N 29°44' W 095°12'0 0.0
2015-Apr-19 17:33N 29°44' W 095°12'0 0.0
2015-Apr-19 16:33N 29°44' W 095°12'0 0.0
2015-Apr-19 15:33N 29°44' W 095°12'0 0.0
2015-Apr-19 14:33N 29°44' W 095°12'0 0.0
2015-Apr-19 13:33N 29°44' W 095°12'0 0.0
2015-Apr-19 12:33N 29°44' W 095°12'0 0.0
2015-Apr-19 11:33N 29°44' W 095°12'2 2.2
2015-Apr-19 10:33N 29°45' W 095°10'5 4.9
2015-Apr-19 09:33N 29°46' W 095°05'0 0.1
2015-Apr-19 08:33N 29°46' W 095°05'1 1.4
2015-Apr-19 07:33N 29°46' W 095°06'0 0.0
2015-Apr-19 06:33N 29°46' W 095°06'0 0.0
2015-Apr-19 05:33N 29°46' W 095°06'1 0.9
2015-Apr-19 04:33N 29°46' W 095°05'0 0.5
2015-Apr-19 03:33N 29°46' W 095°06'0 0.0
2015-Apr-19 02:33N 29°46' W 095°06'0 0.3
2015-Apr-19 01:33N 29°45' W 095°06'1 1.0
2015-Apr-19 00:33N 29°46' W 095°06'0 0.0
2015-Apr-18 23:33N 29°46' W 095°06'0 0.0
2015-Apr-18 22:33N 29°46' W 095°06'0 0.0
2015-Apr-18 21:33N 29°46' W 095°06'0 0.0
2015-Apr-18 20:33N 29°46' W 095°06'0 0.0
2015-Apr-18 19:33N 29°46' W 095°06'0 0.0
2015-Apr-18 18:33N 29°46' W 095°06'0 0.0
2015-Apr-18 17:33N 29°46' W 095°06'1 0.9
2015-Apr-18 16:33N 29°46' W 095°05'1 0.7
2015-Apr-18 15:33N 29°46' W 095°04'7 6.7
2015-Apr-18 14:33N 29°41' W 094°59'8 8.3
2015-Apr-18 13:33N 29°34' W 094°55'9 9.1
2015-Apr-18 12:33N 29°26' W 094°50'15 3.6
2015-Apr-18 08:19N 29°14' W 095°01'5 5.6
2015-Apr-18 07:21N 29°11' W 095°06'  
Track history (hours):
 
Tides and Currents Weather Stations Pressure Air Temp Water Temp Dewpoint Dewpoint Depression Visibility Wind Speed Wind Dir Waves Ship Positions

Ronnie Rogers

Owner: Florida Marine Transporters, Inc., Mandeville, LA. More information available from US FCC via Universal Licensing System and Coast Guard Vessel Documentation Center.

Last reported at 2015-Apr-21 18:33 UTC. Time now 2015-Apr-28 14:32 UTC.
Position N 29°24' W 094°49'.

Length 29 m; draft 3 m.

Type: Towing. MMSI: 367113160.

Date/timePositionNaut miles runAvg speedWind from/ knotsBaromVisibWave heightAir tempDewpointWater temp
2015-Apr-21 18:33N 29°24' W 094°49'7 6.6
2015-Apr-21 17:33N 29°30' W 094°52'6 6.2
2015-Apr-21 16:33N 29°35' W 094°56'6 6.5
2015-Apr-21 15:33N 29°41' W 094°59'6 5.6
2015-Apr-21 14:33N 29°45' W 095°04'3 2.9
2015-Apr-21 13:33N 29°47' W 095°04'0 0.1
2015-Apr-21 12:33N 29°47' W 095°04'2 2.1
2015-Apr-21 11:33N 29°46' W 095°05'4 3.9
2015-Apr-21 10:34N 29°45' W 095°10'2 2.3
2015-Apr-21 09:33N 29°44' W 095°12'0 0.0
2015-Apr-21 08:33N 29°44' W 095°12'0 0.0
2015-Apr-21 07:33N 29°44' W 095°12'0 0.0
2015-Apr-21 06:33N 29°44' W 095°12'0 0.0
2015-Apr-21 05:34N 29°44' W 095°12'0 0.0
2015-Apr-21 04:33N 29°44' W 095°12'0 0.2
2015-Apr-21 03:33N 29°44' W 095°12'0 0.0
2015-Apr-21 02:33N 29°44' W 095°12'0 0.0
2015-Apr-21 01:33N 29°44' W 095°12'0 0.0
2015-Apr-21 00:33N 29°44' W 095°12'0 0.2
2015-Apr-20 23:33N 29°44' W 095°12'0 0.0
2015-Apr-20 22:33N 29°44' W 095°12'0 0.2
2015-Apr-20 21:33N 29°44' W 095°12'0 0.0
2015-Apr-20 20:33N 29°44' W 095°12'0 0.0
2015-Apr-20 19:33N 29°44' W 095°12'0 0.0
2015-Apr-20 18:33N 29°44' W 095°12'0 0.0
2015-Apr-20 17:33N 29°44' W 095°12'0 0.0
2015-Apr-20 16:33N 29°44' W 095°12'0 0.0
2015-Apr-20 15:33N 29°44' W 095°12'0 0.2
2015-Apr-20 14:33N 29°44' W 095°12'0 0.0
2015-Apr-20 13:33N 29°44' W 095°12'0 0.0
2015-Apr-20 12:33N 29°44' W 095°12'0 0.0
2015-Apr-20 11:33N 29°44' W 095°12'0 0.0
2015-Apr-20 10:33N 29°44' W 095°12'0 0.0
2015-Apr-20 09:33N 29°44' W 095°12'0 0.0
2015-Apr-20 08:33N 29°44' W 095°12'0 0.2
2015-Apr-20 07:33N 29°44' W 095°12'0 0.0
2015-Apr-20 06:33N 29°44' W 095°12'0 0.0
2015-Apr-20 05:33N 29°44' W 095°12'0 0.0
2015-Apr-20 04:33N 29°44' W 095°12'0 0.2
2015-Apr-20 03:33N 29°44' W 095°12'0 0.0
2015-Apr-20 02:33N 29°44' W 095°12'0 0.2
2015-Apr-20 01:33N 29°44' W 095°12'0 0.0
2015-Apr-20 00:33N 29°44' W 095°12'0 0.0
2015-Apr-19 23:33N 29°44' W 095°12'0 0.0
2015-Apr-19 22:33N 29°44' W 095°12'0 0.0
2015-Apr-19 21:33N 29°44' W 095°12'0 0.0
2015-Apr-19 20:33N 29°44' W 095°12'0 0.0
2015-Apr-19 19:33N 29°44' W 095°12'0 0.0
2015-Apr-19 18:33N 29°44' W 095°12'0 0.0
2015-Apr-19 17:33N 29°44' W 095°12'0 0.0
2015-Apr-19 16:33N 29°44' W 095°12'0 0.0
2015-Apr-19 15:33N 29°44' W 095°12'0 0.0
2015-Apr-19 14:33N 29°44' W 095°12'0 0.0
2015-Apr-19 13:33N 29°44' W 095°12'0 0.0
2015-Apr-19 12:33N 29°44' W 095°12'0 0.0
2015-Apr-19 11:33N 29°44' W 095°12'2 2.2
2015-Apr-19 10:33N 29°45' W 095°10'5 4.9
2015-Apr-19 09:33N 29°46' W 095°05'0 0.1
2015-Apr-19 08:33N 29°46' W 095°05'1 1.4
2015-Apr-19 07:33N 29°46' W 095°06'0 0.0
2015-Apr-19 06:33N 29°46' W 095°06'0 0.0
2015-Apr-19 05:33N 29°46' W 095°06'1 0.9
2015-Apr-19 04:33N 29°46' W 095°05'0 0.5
2015-Apr-19 03:33N 29°46' W 095°06'0 0.0
2015-Apr-19 02:33N 29°46' W 095°06'0 0.3
2015-Apr-19 01:33N 29°45' W 095°06'1 1.0
2015-Apr-19 00:33N 29°46' W 095°06'0 0.0
2015-Apr-18 23:33N 29°46' W 095°06'0 0.0
2015-Apr-18 22:33N 29°46' W 095°06'0 0.0
2015-Apr-18 21:33N 29°46' W 095°06'0 0.0
2015-Apr-18 20:33N 29°46' W 095°06'0 0.0
2015-Apr-18 19:33N 29°46' W 095°06'0 0.0
2015-Apr-18 18:33N 29°46' W 095°06'0 0.0
2015-Apr-18 17:33N 29°46' W 095°06'1 0.9
2015-Apr-18 16:33N 29°46' W 095°05'1 0.7
2015-Apr-18 15:33N 29°46' W 095°04'7 6.7
2015-Apr-18 14:33N 29°41' W 094°59'8 8.3
2015-Apr-18 13:33N 29°34' W 094°55'9 9.1
2015-Apr-18 12:33N 29°26' W 094°50'15 3.6
2015-Apr-18 08:19N 29°14' W 095°01'5 5.6
2015-Apr-18 07:21N 29°11' W 095°06'  

Dump ship's entire track history